createdAt,value
2022-08-05T00:00:17.785Z,17.06
2022-08-05T00:02:51.683Z,17.00
2022-08-05T00:06:02.941Z,17.00
2022-08-05T00:08:33.036Z,17.00
2022-08-05T00:11:00.915Z,17.00
2022-08-05T00:13:38.730Z,16.90
2022-08-05T00:16:12.939Z,16.88
2022-08-05T00:18:42.836Z,16.80
2022-08-05T00:21:12.295Z,16.70
2022-08-05T00:23:46.307Z,16.70
2022-08-05T00:26:20.546Z,16.60
2022-08-05T00:28:47.171Z,16.60
2022-08-05T00:31:16.341Z,16.50
2022-08-05T00:34:43.383Z,16.50
2022-08-05T00:37:13.061Z,16.40
2022-08-05T00:39:43.949Z,16.30
2022-08-05T00:42:38.693Z,16.26
2022-08-05T00:45:11.634Z,16.10
2022-08-05T00:47:57.188Z,16.00
2022-08-05T00:50:25.275Z,16.00
2022-08-05T00:52:54.872Z,16.00
2022-08-05T00:55:22.699Z,16.02
2022-08-05T00:57:55.696Z,16.00
2022-08-05T01:00:29.428Z,16.00
2022-08-05T01:02:58.221Z,16.00
2022-08-05T01:05:27.594Z,16.00
2022-08-05T01:08:41.245Z,15.96
2022-08-05T01:11:24.462Z,15.90
2022-08-05T01:14:18.583Z,15.90
2022-08-05T01:17:44.124Z,15.80
2022-08-05T01:20:51.477Z,15.80
2022-08-05T01:23:53.114Z,15.80
2022-08-05T01:27:17.824Z,15.74
2022-08-05T01:29:52.523Z,15.70
2022-08-05T01:32:27.692Z,15.70
2022-08-05T01:35:10.651Z,15.70
2022-08-05T01:37:47.509Z,15.68
2022-08-05T01:40:18.501Z,15.60
2022-08-05T01:42:48.976Z,15.60
2022-08-05T01:45:17.657Z,15.60
2022-08-05T01:47:50.087Z,15.50
2022-08-05T01:50:28.646Z,15.40
2022-08-05T01:53:02.222Z,15.30
2022-08-05T01:55:33.398Z,15.30
2022-08-05T01:58:11.648Z,15.20
2022-08-05T02:00:45.643Z,15.18
2022-08-05T02:03:29.108Z,15.20
2022-08-05T02:06:33.399Z,15.20
2022-08-05T02:08:58.563Z,15.20
2022-08-05T02:11:33.464Z,15.22
2022-08-05T02:14:12.645Z,15.30
2022-08-05T02:16:53.159Z,15.30
2022-08-05T02:19:28.744Z,15.30
2022-08-05T02:22:25.407Z,15.30
2022-08-05T02:25:02.300Z,15.30
2022-08-05T02:27:58.308Z,15.30
2022-08-05T02:30:23.612Z,15.30
2022-08-05T02:32:57.951Z,15.30
2022-08-05T02:35:28.174Z,15.30
2022-08-05T02:38:02.366Z,15.20
2022-08-05T02:40:30.598Z,15.20
2022-08-05T02:43:00.444Z,15.20
2022-08-05T02:45:28.863Z,15.20
2022-08-05T02:48:17.162Z,15.14
2022-08-05T02:50:48.359Z,15.20
2022-08-05T02:53:19.058Z,15.20
2022-08-05T02:55:53.744Z,15.20
2022-08-05T02:58:26.663Z,15.20
2022-08-05T03:00:56.575Z,15.26
2022-08-05T03:03:23.976Z,15.22
2022-08-05T03:06:53.574Z,15.20
2022-08-05T03:08:42.807Z,15.20
2022-08-05T03:11:55.034Z,15.20
2022-08-05T03:14:13.680Z,15.20
2022-08-05T03:16:41.033Z,15.20
2022-08-05T03:19:16.995Z,15.20
2022-08-05T03:21:48.644Z,15.20
2022-08-05T03:24:26.839Z,15.20
2022-08-05T03:26:56.519Z,15.20
2022-08-05T03:29:24.490Z,15.30
2022-08-05T03:32:12.190Z,15.40
2022-08-05T03:34:42.721Z,15.40
2022-08-05T03:37:20.816Z,15.50
2022-08-05T03:40:01.757Z,15.60
2022-08-05T03:42:32.983Z,15.70
2022-08-05T03:45:22.086Z,15.80
2022-08-05T03:47:50.426Z,15.90
2022-08-05T03:50:17.308Z,16.00
2022-08-05T03:55:00.536Z,16.10
2022-08-05T03:56:30.442Z,16.20
2022-08-05T03:59:08.166Z,16.30
2022-08-05T04:01:40.004Z,16.30
2022-08-05T04:04:10.927Z,16.40
2022-08-05T04:06:48.056Z,16.40
2022-08-05T04:09:20.419Z,16.40
2022-08-05T04:11:54.354Z,16.48
2022-08-05T04:14:30.296Z,16.52
2022-08-05T04:17:00.125Z,16.60
2022-08-05T04:19:29.430Z,16.70
2022-08-05T04:22:08.561Z,16.80
2022-08-05T04:24:44.287Z,16.90
2022-08-05T04:27:15.479Z,17.00
2022-08-05T04:29:42.694Z,17.00
2022-08-05T04:32:10.245Z,17.10
2022-08-05T04:34:42.638Z,17.20
2022-08-05T04:37:09.765Z,17.30
2022-08-05T04:39:37.583Z,17.40
2022-08-05T04:42:06.266Z,17.48
2022-08-05T04:44:33.096Z,17.60
2022-08-05T04:47:09.375Z,17.70
2022-08-05T04:50:02.450Z,17.80
2022-08-05T04:52:27.770Z,18.00
2022-08-05T04:54:56.919Z,18.10
2022-08-05T04:57:29.170Z,18.10
2022-08-05T04:59:58.582Z,18.20
2022-08-05T05:02:36.282Z,18.30
2022-08-05T05:05:16.692Z,18.50
2022-08-05T05:07:56.666Z,18.60
2022-08-05T05:10:33.680Z,18.80
2022-08-05T05:13:03.795Z,18.90
2022-08-05T05:15:56.740Z,19.00
2022-08-05T05:18:28.710Z,19.18
2022-08-05T05:21:00.193Z,19.30
2022-08-05T05:23:26.938Z,19.40
2022-08-05T05:26:06.238Z,19.50
2022-08-05T05:28:35.178Z,19.60
2022-08-05T05:31:09.498Z,19.70
2022-08-05T05:33:58.699Z,19.80
2022-08-05T05:36:22.663Z,19.90
2022-08-05T05:38:49.886Z,20.00
2022-08-05T05:41:16.593Z,20.10
2022-08-05T05:43:57.293Z,20.20
2022-08-05T05:46:26.734Z,20.40
2022-08-05T05:48:53.243Z,20.50
2022-08-05T05:51:22.162Z,20.60
2022-08-05T05:53:57.567Z,20.70
2022-08-05T05:56:34.129Z,20.80
2022-08-05T05:59:05.443Z,20.96
2022-08-05T06:01:39.334Z,21.08
2022-08-05T06:04:11.836Z,21.20
2022-08-05T06:06:42.566Z,21.30
2022-08-05T06:09:17.465Z,21.40
2022-08-05T06:12:01.054Z,21.50
2022-08-05T06:14:29.746Z,21.60
2022-08-05T06:16:57.071Z,21.70
2022-08-05T06:19:34.158Z,21.82
2022-08-05T06:22:04.200Z,22.00
2022-08-05T06:24:34.858Z,22.10
2022-08-05T06:27:02.375Z,22.20
2022-08-05T06:29:52.097Z,22.30
2022-08-05T06:32:25.585Z,22.40
2022-08-05T06:34:56.635Z,22.50
2022-08-05T06:37:56.225Z,22.60
2022-08-05T06:40:18.384Z,22.70
2022-08-05T06:42:52.175Z,22.80
2022-08-05T06:45:44.428Z,22.84
2022-08-05T06:48:36.869Z,23.00
2022-08-05T06:50:56.916Z,23.04
2022-08-05T06:53:28.552Z,23.10
2022-08-05T06:55:58.202Z,23.20
2022-08-05T06:58:35.113Z,23.36
2022-08-05T07:01:06.302Z,23.50
2022-08-05T07:03:34.107Z,23.60
2022-08-05T07:06:05.662Z,23.80
2022-08-05T07:08:40.396Z,23.90
2022-08-05T07:11:15.027Z,24.00
2022-08-05T07:14:01.653Z,24.10
2022-08-05T07:17:59.725Z,24.30
2022-08-05T07:22:28.943Z,24.60
2022-08-05T07:25:22.662Z,24.70
2022-08-05T07:27:58.605Z,24.80
2022-08-05T07:30:38.787Z,24.90
2022-08-05T07:33:15.981Z,25.00
2022-08-05T07:36:04.264Z,25.06
2022-08-05T07:38:42.648Z,25.20
2022-08-05T07:42:13.533Z,25.24
2022-08-05T07:44:18.431Z,25.34
2022-08-05T07:46:48.625Z,25.40
2022-08-05T07:49:16.230Z,25.50
2022-08-05T07:51:52.904Z,25.60
2022-08-05T07:54:26.253Z,25.70
2022-08-05T07:57:13.740Z,25.80
2022-08-05T07:59:41.410Z,25.86
2022-08-05T08:02:16.783Z,25.90
2022-08-05T08:04:49.152Z,26.00
2022-08-05T08:07:22.032Z,26.10
2022-08-05T08:09:52.339Z,26.20
2022-08-05T08:12:36.902Z,26.20
2022-08-05T08:15:09.385Z,26.30
2022-08-05T08:17:46.218Z,26.40
2022-08-05T08:20:42.650Z,26.50
2022-08-05T08:23:07.623Z,26.50
2022-08-05T08:26:00.720Z,26.60
2022-08-05T08:28:36.138Z,26.70
2022-08-05T08:31:08.022Z,26.80
2022-08-05T08:33:38.189Z,26.80
2022-08-05T08:38:58.098Z,26.98
2022-08-05T08:41:52.697Z,27.00
2022-08-05T08:45:22.975Z,27.02
2022-08-05T08:47:47.034Z,27.10
2022-08-05T08:50:12.999Z,27.18
2022-08-05T08:52:59.325Z,27.22
2022-08-05T08:56:01.939Z,27.32
2022-08-05T08:58:17.115Z,27.40
2022-08-05T09:00:44.601Z,27.50
2022-08-05T09:03:11.762Z,27.50
2022-08-05T09:06:08.188Z,27.60
2022-08-05T09:08:30.377Z,27.70
2022-08-05T09:10:58.229Z,27.72
2022-08-05T09:13:25.637Z,27.80
2022-08-05T09:15:59.573Z,27.80
2022-08-05T09:18:26.456Z,27.82
2022-08-05T09:20:53.174Z,27.90
2022-08-05T09:23:21.849Z,27.98
2022-08-05T09:26:09.143Z,28.00
2022-08-05T09:28:39.759Z,28.04
2022-08-05T09:31:18.293Z,28.10
2022-08-05T09:34:03.025Z,28.12
2022-08-05T09:36:45.687Z,28.20
2022-08-05T09:39:24.568Z,28.30
2022-08-05T09:42:08.561Z,28.40
2022-08-05T09:44:44.784Z,28.40
2022-08-05T09:47:20.618Z,28.40
2022-08-05T09:50:02.295Z,28.42
2022-08-05T09:52:31.117Z,28.50
2022-08-05T09:55:56.896Z,28.50
2022-08-05T09:58:00.053Z,28.60
2022-08-05T10:00:27.850Z,28.62
2022-08-05T10:02:58.258Z,28.70
2022-08-05T10:05:28.398Z,28.72
2022-08-05T10:08:10.644Z,28.76
2022-08-05T10:10:44.489Z,28.80
2022-08-05T10:13:14.656Z,28.80
2022-08-05T10:15:42.028Z,28.90
2022-08-05T10:18:27.236Z,28.90
2022-08-05T10:21:06.320Z,29.00
2022-08-05T10:23:55.991Z,29.20
2022-08-05T10:26:32.598Z,29.20
2022-08-05T10:29:00.988Z,29.28
2022-08-05T10:33:00.861Z,29.30
2022-08-05T10:34:14.609Z,29.38
2022-08-05T10:36:44.359Z,29.40
2022-08-05T10:39:25.046Z,29.40
2022-08-05T10:42:21.586Z,29.42
2022-08-05T10:44:59.581Z,29.50
2022-08-05T10:47:36.815Z,29.50
2022-08-05T10:50:32.005Z,29.50
2022-08-05T10:53:01.828Z,29.60
2022-08-05T10:55:38.594Z,29.70
2022-08-05T10:58:18.011Z,29.70
2022-08-05T11:00:48.484Z,29.74
2022-08-05T11:03:23.652Z,29.80
2022-08-05T11:06:15.930Z,29.88
2022-08-05T11:09:16.828Z,30.00
2022-08-05T11:11:53.404Z,30.08
2022-08-05T11:18:00.451Z,30.20
2022-08-05T11:20:47.552Z,30.30
2022-08-05T11:24:05.321Z,30.36
2022-08-05T11:26:32.628Z,30.40
2022-08-05T11:29:06.744Z,30.44
2022-08-05T11:31:56.648Z,30.50
2022-08-05T11:34:51.050Z,30.50
2022-08-05T11:38:27.929Z,30.60
2022-08-05T11:41:01.699Z,30.70
2022-08-05T11:44:05.993Z,30.80
2022-08-05T11:46:37.906Z,30.80
2022-08-05T11:49:24.689Z,30.90
2022-08-05T11:51:57.346Z,30.90
2022-08-05T11:54:33.400Z,31.00
2022-08-05T11:57:07.680Z,31.10
2022-08-05T11:59:49.586Z,31.20
2022-08-05T12:02:29.740Z,31.30
2022-08-05T12:05:07.117Z,31.40
2022-08-05T12:08:09.360Z,31.50
2022-08-05T12:10:42.997Z,31.54
2022-08-05T12:13:17.337Z,31.64
2022-08-05T12:15:56.024Z,31.70
2022-08-05T12:18:34.571Z,31.70
2022-08-05T12:21:15.474Z,31.80
2022-08-05T12:24:17.270Z,31.90
2022-08-05T12:26:50.560Z,32.00
2022-08-05T12:29:29.092Z,32.00
2022-08-05T12:32:07.500Z,32.10
2022-08-05T12:34:37.925Z,32.12
2022-08-05T12:37:21.657Z,32.20
2022-08-05T12:40:03.469Z,32.30
2022-08-05T12:42:37.335Z,32.42
2022-08-05T12:45:09.987Z,32.50
2022-08-05T12:47:38.412Z,32.50
2022-08-05T12:50:17.222Z,32.60
2022-08-05T12:52:59.726Z,32.60
2022-08-05T12:55:32.849Z,32.70
2022-08-05T12:58:49.881Z,32.80
2022-08-05T13:02:03.202Z,32.88
2022-08-05T13:03:42.526Z,32.90
2022-08-05T13:06:17.701Z,33.00
2022-08-05T13:08:51.751Z,33.10
2022-08-05T13:11:59.968Z,33.12
2022-08-05T13:14:14.981Z,33.20
2022-08-05T13:16:56.881Z,33.30
2022-08-05T13:19:52.317Z,33.30
2022-08-05T13:22:14.701Z,33.50
2022-08-05T13:24:57.899Z,33.50
2022-08-05T13:27:38.062Z,33.50
2022-08-05T13:30:34.570Z,33.60
2022-08-05T13:33:01.498Z,33.70
2022-08-05T13:35:43.085Z,33.80
2022-08-05T13:38:28.010Z,33.92
2022-08-05T13:40:59.211Z,34.10
2022-08-05T13:43:45.759Z,34.20
2022-08-05T13:46:13.778Z,34.30
2022-08-05T13:48:58.358Z,34.30
2022-08-05T13:51:36.532Z,34.30
2022-08-05T13:54:11.744Z,34.30
2022-08-05T13:56:45.558Z,34.30
2022-08-05T13:59:24.357Z,34.40
2022-08-05T14:01:58.888Z,34.40
2022-08-05T14:04:55.250Z,34.40
2022-08-05T14:07:55.623Z,34.50
2022-08-05T14:10:19.107Z,34.60
2022-08-05T14:12:54.954Z,34.60
2022-08-05T14:16:07.597Z,34.60
2022-08-05T14:18:17.818Z,34.50
2022-08-05T14:20:52.900Z,34.50
2022-08-05T14:23:25.015Z,34.60
2022-08-05T14:25:58.604Z,34.60
2022-08-05T14:28:29.907Z,34.50
2022-08-05T14:30:58.942Z,34.60
2022-08-05T14:33:25.973Z,34.70
2022-08-05T14:35:54.226Z,34.80
2022-08-05T14:38:31.935Z,34.90
2022-08-05T14:41:07.172Z,35.00
2022-08-05T14:44:00.052Z,35.00
2022-08-05T14:46:29.777Z,35.00
2022-08-05T14:49:06.875Z,34.92
2022-08-05T14:51:38.973Z,34.90
2022-08-05T14:54:28.098Z,34.90
2022-08-05T14:56:57.750Z,34.84
2022-08-05T14:59:25.536Z,34.80
2022-08-05T15:01:56.695Z,34.80
2022-08-05T15:04:27.454Z,34.90
2022-08-05T15:06:55.825Z,34.90
2022-08-05T15:09:51.388Z,35.00
2022-08-05T15:12:16.558Z,35.08
2022-08-05T15:14:50.127Z,35.10
2022-08-05T15:17:45.095Z,35.10
2022-08-05T15:20:18.558Z,35.10
2022-08-05T15:22:52.361Z,35.10
2022-08-05T15:25:23.211Z,35.08
2022-08-05T15:27:52.026Z,35.10
2022-08-05T15:30:19.347Z,35.10
2022-08-05T15:32:46.303Z,35.20
2022-08-05T15:35:14.882Z,35.20
2022-08-05T15:38:34.853Z,35.20
2022-08-05T15:41:03.091Z,35.30
2022-08-05T15:43:20.074Z,35.36
2022-08-05T15:45:47.943Z,35.40
2022-08-05T15:48:28.275Z,35.50
2022-08-05T15:50:54.963Z,35.52
2022-08-05T15:53:22.962Z,35.60
2022-08-05T15:56:02.241Z,35.60
2022-08-05T15:58:35.394Z,35.52
2022-08-05T16:01:16.433Z,35.50
2022-08-05T16:03:50.535Z,35.50
2022-08-05T16:06:19.851Z,35.50
2022-08-05T16:08:47.254Z,35.50
2022-08-05T16:11:14.434Z,35.50
2022-08-05T16:13:41.732Z,35.54
2022-08-05T16:16:10.798Z,35.60
2022-08-05T16:18:52.503Z,35.70
2022-08-05T16:21:20.755Z,35.70
2022-08-05T16:24:34.921Z,35.70
2022-08-05T16:27:01.516Z,35.78
2022-08-05T16:29:31.268Z,35.80
2022-08-05T16:32:06.618Z,35.80
2022-08-05T16:34:36.860Z,35.88
2022-08-05T16:38:02.620Z,35.90
2022-08-05T16:40:04.808Z,36.00
2022-08-05T16:42:34.599Z,36.10
2022-08-05T16:45:01.954Z,36.20
2022-08-05T16:47:40.843Z,36.30
2022-08-05T16:50:19.353Z,36.40
2022-08-05T16:52:48.591Z,36.50
2022-08-05T16:55:16.564Z,36.60
2022-08-05T16:58:00.504Z,36.60
2022-08-05T17:00:35.004Z,36.70
2022-08-05T17:03:15.228Z,36.70
2022-08-05T17:05:53.195Z,36.50
2022-08-05T17:08:36.189Z,36.50
2022-08-05T17:11:16.496Z,36.50
2022-08-05T17:13:44.409Z,36.60
2022-08-05T17:16:32.932Z,36.64
2022-08-05T17:18:58.681Z,36.70
2022-08-05T17:21:25.285Z,36.72
2022-08-05T17:24:04.935Z,36.70
2022-08-05T17:26:45.564Z,36.70
2022-08-05T17:29:14.494Z,36.60
2022-08-05T17:31:56.622Z,36.50
2022-08-05T17:34:29.821Z,36.40
2022-08-05T17:37:00.227Z,36.20
2022-08-05T17:39:34.089Z,36.00
2022-08-05T17:42:18.316Z,35.72
2022-08-05T17:44:50.929Z,35.46
2022-08-05T17:47:22.445Z,35.20
2022-08-05T17:50:04.248Z,34.86
2022-08-05T17:52:52.743Z,34.50
2022-08-05T17:55:27.381Z,34.10
2022-08-05T17:58:02.161Z,33.56
2022-08-05T18:00:29.826Z,33.04
2022-08-05T18:02:57.199Z,32.52
2022-08-05T18:05:28.056Z,32.00
2022-08-05T18:07:56.733Z,31.50
2022-08-05T18:10:23.862Z,31.10
2022-08-05T18:12:50.362Z,30.66
2022-08-05T18:15:17.288Z,30.22
2022-08-05T18:18:01.260Z,29.84
2022-08-05T18:20:32.107Z,29.40
2022-08-05T18:23:09.197Z,29.10
2022-08-05T18:25:39.486Z,28.78
2022-08-05T18:28:11.897Z,28.48
2022-08-05T18:30:39.003Z,28.20
2022-08-05T18:33:07.427Z,27.90
2022-08-05T18:36:00.096Z,27.60
2022-08-05T18:38:25.989Z,27.30
2022-08-05T18:41:55.276Z,27.00
2022-08-05T18:43:42.982Z,26.76
2022-08-05T18:46:19.989Z,26.50
2022-08-05T18:48:53.495Z,26.30
2022-08-05T18:52:02.847Z,26.00
2022-08-05T18:54:31.471Z,25.80
2022-08-05T18:57:01.039Z,25.58
2022-08-05T18:59:50.679Z,25.36
2022-08-05T19:02:28.605Z,25.20
2022-08-05T19:05:02.885Z,25.00
2022-08-05T19:07:49.613Z,24.80
2022-08-05T19:10:26.657Z,24.70
2022-08-05T19:12:56.837Z,24.60
2022-08-05T19:15:57.744Z,24.50
2022-08-05T19:18:13.663Z,24.40
2022-08-05T19:20:51.540Z,24.30
2022-08-05T19:24:04.561Z,24.20
2022-08-05T19:26:05.222Z,24.10
2022-08-05T19:28:37.394Z,24.00
2022-08-05T19:31:09.626Z,23.90
2022-08-05T19:33:40.775Z,23.80
2022-08-05T19:36:16.811Z,23.66
2022-08-05T19:38:45.315Z,23.54
2022-08-05T19:41:11.926Z,23.40
2022-08-05T19:44:05.476Z,23.30
2022-08-05T19:46:28.950Z,23.20
2022-08-05T19:49:01.227Z,23.04
2022-08-05T19:52:08.885Z,22.90
2022-08-05T19:54:25.640Z,22.80
2022-08-05T19:57:02.369Z,22.70
2022-08-05T19:59:56.320Z,22.60
2022-08-05T20:02:17.655Z,22.54
2022-08-05T20:04:46.158Z,22.50
2022-08-05T20:07:15.594Z,22.42
2022-08-05T20:10:11.811Z,22.40
2022-08-05T20:12:47.760Z,22.34
2022-08-05T20:15:48.815Z,22.30
2022-08-05T20:18:10.616Z,22.20
2022-08-05T20:20:55.956Z,22.20
2022-08-05T20:23:39.873Z,22.10
2022-08-05T20:26:16.504Z,22.00
2022-08-05T20:28:53.983Z,22.00
2022-08-05T20:31:36.750Z,21.90
2022-08-05T20:34:10.153Z,21.90
2022-08-05T20:36:36.678Z,21.80
2022-08-05T20:39:05.836Z,21.80
2022-08-05T20:41:43.209Z,21.70
2022-08-05T20:44:18.926Z,21.62
2022-08-05T20:46:57.787Z,21.60
2022-08-05T20:49:26.086Z,21.50
2022-08-05T20:51:55.051Z,21.50
2022-08-05T20:54:25.521Z,21.40
2022-08-05T20:57:10.347Z,21.40
2022-08-05T21:00:10.374Z,21.40
2022-08-05T21:02:30.836Z,21.40
2022-08-05T21:04:57.521Z,21.30
2022-08-05T21:07:50.849Z,21.28
2022-08-05T21:10:15.795Z,21.20
2022-08-05T21:13:09.810Z,21.10
2022-08-05T21:15:33.763Z,21.06
2022-08-05T21:18:00.806Z,21.00
2022-08-05T21:20:33.393Z,21.00
2022-08-05T21:23:00.338Z,21.00
2022-08-05T21:25:33.465Z,21.00
2022-08-05T21:28:01.936Z,21.00
2022-08-05T21:30:28.564Z,21.00
2022-08-05T21:32:55.366Z,20.94
2022-08-05T21:35:29.401Z,20.90
2022-08-05T21:37:57.896Z,20.90
2022-08-05T21:40:25.259Z,20.90
2022-08-05T21:42:53.479Z,20.90
2022-08-05T21:45:26.550Z,20.90
2022-08-05T21:48:08.934Z,20.90
2022-08-05T21:50:36.716Z,20.90
2022-08-05T21:53:08.502Z,20.90
2022-08-05T21:56:04.707Z,20.80
2022-08-05T21:58:32.129Z,20.80
2022-08-05T22:00:59.754Z,20.80
2022-08-05T22:03:52.290Z,20.70
2022-08-05T22:06:22.512Z,20.70
2022-08-05T22:08:52.605Z,20.70
2022-08-05T22:11:34.722Z,20.72
2022-08-05T22:14:34.386Z,20.70
2022-08-05T22:16:51.634Z,20.70
2022-08-05T22:20:00.917Z,20.70
2022-08-05T22:22:06.940Z,20.60
2022-08-05T22:24:53.584Z,20.60
2022-08-05T22:28:08.793Z,20.60
2022-08-05T22:30:35.399Z,20.60
2022-08-05T22:33:15.186Z,20.40
2022-08-05T22:35:48.698Z,20.50
2022-08-05T22:38:16.901Z,20.60
2022-08-05T22:40:49.387Z,20.82
2022-08-05T22:43:17.131Z,21.08
2022-08-05T22:46:12.053Z,21.30
2022-08-05T22:48:40.206Z,21.50
2022-08-05T22:51:07.853Z,21.62
2022-08-05T22:53:35.938Z,21.70
2022-08-05T22:56:03.602Z,21.80
2022-08-05T22:58:36.611Z,22.00
2022-08-05T23:01:03.226Z,22.10
2022-08-05T23:03:58.046Z,22.30
2022-08-05T23:06:19.041Z,22.50
2022-08-05T23:08:45.877Z,22.68
2022-08-05T23:11:18.776Z,22.70
2022-08-05T23:13:45.880Z,22.80
2022-08-05T23:16:33.270Z,22.80
2022-08-05T23:19:00.230Z,22.86
2022-08-05T23:21:42.528Z,22.90
2022-08-05T23:24:11.186Z,22.90
2022-08-05T23:26:38.166Z,22.90
2022-08-05T23:29:05.445Z,22.90
2022-08-05T23:31:36.403Z,22.90
2022-08-05T23:34:06.752Z,22.80
2022-08-05T23:36:41.479Z,22.80
2022-08-05T23:39:17.138Z,22.74
2022-08-05T23:41:51.381Z,22.70
2022-08-05T23:44:19.914Z,22.70
2022-08-05T23:46:51.854Z,22.70
2022-08-05T23:49:23.695Z,22.60
2022-08-05T23:52:10.929Z,22.60
2022-08-05T23:54:38.314Z,22.60
2022-08-05T23:57:08.069Z,22.56
